createdAt,value
2023-02-04T00:00:21.727Z,98379.44
2023-02-04T00:02:50.115Z,98369.13
2023-02-04T00:05:18.697Z,98375.19
2023-02-04T00:07:46.533Z,98381.78
2023-02-04T00:10:14.291Z,98386.81
2023-02-04T00:12:41.754Z,98368.53
2023-02-04T00:15:11.036Z,98378.03
2023-02-04T00:17:39.691Z,98380.69
2023-02-04T00:20:07.788Z,98380.09
2023-02-04T00:22:35.260Z,98370.63
2023-02-04T00:25:03.016Z,98384.34
2023-02-04T00:27:31.220Z,98381.19
2023-02-04T00:30:02.007Z,98385.66
2023-02-04T00:32:31.527Z,98388.28
2023-02-04T00:34:59.063Z,98391.75
2023-02-04T00:37:26.614Z,98389.91
2023-02-04T00:39:54.128Z,98398.09
2023-02-04T00:42:21.589Z,98390.13
2023-02-04T00:44:49.189Z,98393.81
2023-02-04T00:47:17.840Z,98393.03
2023-02-04T00:49:45.369Z,98405.47
2023-02-04T00:52:12.911Z,98406.22
2023-02-04T00:54:41.415Z,98418.59
2023-02-04T00:57:08.896Z,98405.41
2023-02-04T00:59:36.344Z,98409.84
2023-02-04T01:02:03.858Z,98409.53
2023-02-04T01:04:31.374Z,98396.53
2023-02-04T01:06:59.035Z,98392.50
2023-02-04T01:09:27.454Z,98407.03
2023-02-04T01:11:55.043Z,98388.31
2023-02-04T01:14:22.550Z,98395.41
2023-02-04T01:16:50.166Z,98386.16
2023-02-04T01:19:17.669Z,98386.47
2023-02-04T01:21:45.184Z,98389.63
2023-02-04T01:24:13.043Z,98390.44
2023-02-04T01:26:58.987Z,98395.50
2023-02-04T01:29:26.535Z,98387.28
2023-02-04T01:31:54.055Z,98391.53
2023-02-04T01:34:22.067Z,98381.50
2023-02-04T01:36:49.673Z,98385.47
2023-02-04T01:39:18.192Z,98388.09
2023-02-04T01:41:47.528Z,98389.44
2023-02-04T01:44:15.082Z,98388.16
2023-02-04T01:46:42.947Z,98390.31
2023-02-04T01:49:11.624Z,98387.66
2023-02-04T01:51:39.800Z,98387.66
2023-02-04T01:54:12.426Z,98379.75
2023-02-04T01:56:43.371Z,98383.19
2023-02-04T01:59:15.586Z,98391.91
2023-02-04T02:01:46.634Z,98401.69
2023-02-04T02:04:21.010Z,98386.41
2023-02-04T02:06:55.707Z,98377.16
2023-02-04T02:09:23.893Z,98381.13
2023-02-04T02:11:51.687Z,98387.97
2023-02-04T02:14:20.264Z,98395.09
2023-02-04T02:16:47.951Z,98396.69
2023-02-04T02:19:24.629Z,98392.75
2023-02-04T02:22:07.441Z,98392.75
2023-02-04T02:24:36.344Z,98404.91
2023-02-04T02:27:08.685Z,98401.50
2023-02-04T02:29:38.907Z,98412.31
2023-02-04T02:32:06.922Z,98402.00
2023-02-04T02:34:35.490Z,98394.09
2023-02-04T02:37:04.873Z,98410.75
2023-02-04T02:39:33.078Z,98397.03
2023-02-04T02:42:00.809Z,98393.28
2023-02-04T02:44:30.488Z,98408.13
2023-02-04T02:46:58.381Z,98408.41
2023-02-04T02:49:27.577Z,98404.19
2023-02-04T02:51:55.283Z,98406.00
2023-02-04T02:54:32.763Z,98411.34
2023-02-04T02:57:03.437Z,98408.16
2023-02-04T02:59:31.013Z,98406.81
2023-02-04T03:02:02.385Z,98407.91
2023-02-04T03:04:38.778Z,98412.69
2023-02-04T03:07:07.952Z,98414.81
2023-02-04T03:09:36.444Z,98417.19
2023-02-04T03:12:06.477Z,98417.72
2023-02-04T03:14:38.564Z,98420.34
2023-02-04T03:17:09.506Z,98413.75
2023-02-04T03:19:38.223Z,98418.53
2023-02-04T03:22:07.299Z,98411.91
2023-02-04T03:24:36.503Z,98416.66
2023-02-04T03:27:04.847Z,98410.31
2023-02-04T03:29:32.488Z,98415.06
2023-02-04T03:32:06.753Z,98415.56
2023-02-04T03:34:34.183Z,98418.47
2023-02-04T03:37:01.738Z,98427.44
2023-02-04T03:39:29.520Z,98432.16
2023-02-04T03:41:56.995Z,98423.16
2023-02-04T03:44:27.157Z,98436.59
2023-02-04T03:46:55.903Z,98440.00
2023-02-04T03:49:24.188Z,98424.69
2023-02-04T03:51:52.244Z,98434.16
2023-02-04T03:54:19.834Z,98431.44
2023-02-04T03:56:47.462Z,98439.38
2023-02-04T03:59:14.985Z,98442.00
2023-02-04T04:01:42.586Z,98435.91
2023-02-04T04:04:10.308Z,98442.75
2023-02-04T04:06:37.978Z,98439.09
2023-02-04T04:09:05.591Z,98438.28
2023-02-04T04:11:33.164Z,98448.72
2023-02-04T04:14:01.645Z,98450.34
2023-02-04T04:16:29.418Z,98440.38
2023-02-04T04:18:57.134Z,98448.63
2023-02-04T04:21:24.674Z,98444.69
2023-02-04T04:23:52.194Z,98459.03
2023-02-04T04:26:20.395Z,98462.25
2023-02-04T04:28:48.036Z,98444.28
2023-02-04T04:31:15.832Z,98459.91
2023-02-04T04:33:44.213Z,98455.16
2023-02-04T04:36:11.874Z,98459.63
2023-02-04T04:38:39.398Z,98464.31
2023-02-04T04:41:06.979Z,98461.06
2023-02-04T04:43:34.469Z,98461.50
2023-02-04T04:46:02.417Z,98458.94
2023-02-04T04:48:31.840Z,98468.06
2023-02-04T04:50:59.484Z,98468.38
2023-02-04T04:53:27.053Z,98462.28
2023-02-04T04:55:54.694Z,98459.56
2023-02-04T04:58:22.348Z,98466.34
2023-02-04T05:00:49.827Z,98463.81
2023-02-04T05:03:17.308Z,98477.34
2023-02-04T05:05:44.849Z,98467.47
2023-02-04T05:08:14.424Z,98458.41
2023-02-04T05:10:42.355Z,98468.22
2023-02-04T05:13:10.412Z,98466.53
2023-02-04T05:15:38.161Z,98467.34
2023-02-04T05:18:06.068Z,98478.34
2023-02-04T05:20:34.835Z,98461.28
2023-02-04T05:23:05.155Z,98461.66
2023-02-04T05:25:33.651Z,98463.69
2023-02-04T05:28:01.383Z,98466.47
2023-02-04T05:30:29.187Z,98463.84
2023-02-04T05:32:56.746Z,98471.09
2023-02-04T05:35:24.650Z,98473.56
2023-02-04T05:37:52.161Z,98469.25
2023-02-04T05:40:19.759Z,98470.25
2023-02-04T05:42:47.249Z,98471.09
2023-02-04T05:45:16.627Z,98467.00
2023-02-04T05:47:44.219Z,98474.06
2023-02-04T05:50:12.185Z,98475.06
2023-02-04T05:52:40.521Z,98468.69
2023-02-04T05:55:10.744Z,98465.94
2023-02-04T05:57:39.724Z,98467.66
2023-02-04T06:00:08.377Z,98470.38
2023-02-04T06:02:41.754Z,98445.66
2023-02-04T06:05:12.233Z,98469.41
2023-02-04T06:07:39.840Z,98461.53
2023-02-04T06:10:11.940Z,98431.22
2023-02-04T06:12:42.858Z,98469.38
2023-02-04T06:15:11.121Z,98468.91
2023-02-04T06:17:38.927Z,98470.94
2023-02-04T06:20:07.478Z,98478.13
2023-02-04T06:22:35.077Z,98477.03
2023-02-04T06:25:02.704Z,98476.34
2023-02-04T06:27:30.980Z,98479.50
2023-02-04T06:29:58.881Z,98469.41
2023-02-04T06:32:28.282Z,98477.69
2023-02-04T06:34:56.437Z,98466.16
2023-02-04T06:37:24.474Z,98482.66
2023-02-04T06:39:52.498Z,98483.84
2023-02-04T06:42:20.195Z,98491.56
2023-02-04T06:44:47.811Z,98490.78
2023-02-04T06:47:15.281Z,98479.13
2023-02-04T06:49:42.936Z,98484.88
2023-02-04T06:52:10.593Z,98487.84
2023-02-04T06:54:38.623Z,98490.09
2023-02-04T06:57:12.550Z,98487.22
2023-02-04T06:59:40.536Z,98494.53
2023-02-04T07:02:11.418Z,98490.53
2023-02-04T07:04:41.441Z,98488.03
2023-02-04T07:07:09.111Z,98484.22
2023-02-04T07:09:36.605Z,98489.03
2023-02-04T07:12:05.384Z,98464.88
2023-02-04T07:14:33.067Z,98491.56
2023-02-04T07:17:00.692Z,98486.59
2023-02-04T07:19:28.402Z,98491.31
2023-02-04T07:21:57.296Z,98481.22
2023-02-04T07:24:25.460Z,98486.75
2023-02-04T07:26:53.026Z,98489.50
2023-02-04T07:29:25.687Z,98490.28
2023-02-04T07:31:54.258Z,98489.03
2023-02-04T07:34:22.012Z,98490.50
2023-02-04T07:36:49.696Z,98485.31
2023-02-04T07:39:17.188Z,98487.06
2023-02-04T07:41:44.708Z,98476.69
2023-02-04T07:44:14.630Z,98489.81
2023-02-04T07:46:42.168Z,98488.84
2023-02-04T07:49:09.822Z,98483.28
2023-02-04T07:51:37.801Z,98484.59
2023-02-04T07:54:06.149Z,98482.00
2023-02-04T07:56:34.135Z,98485.63
2023-02-04T07:59:02.938Z,98484.59
2023-02-04T08:01:35.491Z,98495.13
2023-02-04T08:04:03.057Z,98496.75
2023-02-04T08:06:30.754Z,98489.41
2023-02-04T08:08:59.065Z,98487.66
2023-02-04T08:11:27.630Z,98478.81
2023-02-04T08:13:55.226Z,98485.69
2023-02-04T08:16:22.851Z,98486.44
2023-02-04T08:18:50.336Z,98487.41
2023-02-04T08:21:19.386Z,98483.13
2023-02-04T08:23:47.821Z,98492.28
2023-02-04T08:26:15.452Z,98484.97
2023-02-04T08:28:42.943Z,98484.59
2023-02-04T08:31:13.591Z,98487.53
2023-02-04T08:33:41.224Z,98488.44
2023-02-04T08:36:09.272Z,98488.19
2023-02-04T08:38:36.927Z,98480.03
2023-02-04T08:41:04.864Z,98475.94
2023-02-04T08:43:32.324Z,98489.25
2023-02-04T08:45:59.943Z,98487.50
2023-02-04T08:48:27.535Z,98488.72
2023-02-04T08:50:54.994Z,98480.31
2023-02-04T08:53:22.566Z,98475.06
2023-02-04T08:55:50.061Z,98473.94
2023-02-04T08:58:17.633Z,98481.84
2023-02-04T09:00:45.328Z,98480.50
2023-02-04T09:03:12.985Z,98473.78
2023-02-04T09:05:40.493Z,98472.84
2023-02-04T09:08:08.050Z,98478.41
2023-02-04T09:10:35.633Z,98475.72
2023-02-04T09:13:04.419Z,98475.00
2023-02-04T09:15:31.843Z,98475.97
2023-02-04T09:18:11.564Z,98474.25
2023-02-04T09:20:39.501Z,98484.97
2023-02-04T09:23:15.595Z,98485.25
2023-02-04T09:25:44.643Z,98481.78
2023-02-04T09:28:13.700Z,98483.94
2023-02-04T09:30:42.442Z,98479.81
2023-02-04T09:33:11.804Z,98489.88
2023-02-04T09:35:39.705Z,98482.06
2023-02-04T09:38:07.283Z,98488.31
2023-02-04T09:40:41.290Z,98486.84
2023-02-04T09:43:14.717Z,98489.69
2023-02-04T09:45:44.567Z,98480.28
2023-02-04T09:48:15.019Z,98482.28
2023-02-04T09:50:42.758Z,98479.69
2023-02-04T09:53:18.216Z,98479.69
2023-02-04T09:55:48.026Z,98493.38
2023-02-04T09:58:21.005Z,98484.69
2023-02-04T10:00:57.341Z,98487.91
2023-02-04T10:03:25.343Z,98484.84
2023-02-04T10:05:54.001Z,98482.66
2023-02-04T10:08:29.825Z,98482.84
2023-02-04T10:11:00.196Z,98484.66
2023-02-04T10:13:34.258Z,98468.38
2023-02-04T10:16:02.294Z,98488.44
2023-02-04T10:18:33.240Z,98488.06
2023-02-04T10:21:17.566Z,98487.16
2023-02-04T10:23:48.962Z,98490.03
2023-02-04T10:26:29.047Z,98496.66
2023-02-04T10:29:08.214Z,98498.94
2023-02-04T10:31:40.471Z,98507.25
2023-02-04T10:34:13.563Z,98504.06
2023-02-04T10:36:43.147Z,98502.78
2023-02-04T10:39:15.072Z,98506.66
2023-02-04T10:41:49.729Z,98510.59
2023-02-04T10:44:20.512Z,98501.22
2023-02-04T10:46:48.748Z,98501.09
2023-02-04T10:49:26.789Z,98500.72
2023-02-04T10:51:54.558Z,98496.56
2023-02-04T10:54:39.744Z,98495.50
2023-02-04T10:57:23.645Z,98501.09
2023-02-04T10:59:55.495Z,98501.09
2023-02-04T11:02:52.321Z,98506.84
2023-02-04T11:05:23.719Z,98484.16
2023-02-04T11:07:54.430Z,98499.38
2023-02-04T11:10:39.731Z,98491.53
2023-02-04T11:13:07.762Z,98503.88
2023-02-04T11:16:19.532Z,98499.34
2023-02-04T11:18:58.252Z,98509.25
2023-02-04T11:21:34.667Z,98503.75
2023-02-04T11:24:14.368Z,98510.13
2023-02-04T11:26:51.679Z,98515.38
2023-02-04T11:29:39.019Z,98508.31
2023-02-04T11:32:28.419Z,98514.94
2023-02-04T11:35:16.215Z,98522.81
2023-02-04T11:37:45.388Z,98523.16
2023-02-04T11:40:28.146Z,98517.34
2023-02-04T11:43:16.449Z,98516.06
2023-02-04T11:45:44.307Z,98512.38
2023-02-04T11:48:19.259Z,98512.75
2023-02-04T11:51:01.080Z,98517.28
2023-02-04T11:53:34.077Z,98522.25
2023-02-04T11:56:01.707Z,98521.59
2023-02-04T11:58:31.345Z,98516.78
2023-02-04T12:00:59.758Z,98529.38
2023-02-04T12:03:30.818Z,98529.22
2023-02-04T12:05:59.588Z,98535.44
2023-02-04T12:08:37.019Z,98526.44
2023-02-04T12:11:26.223Z,98527.00
2023-02-04T12:13:56.711Z,98513.25
2023-02-04T12:16:24.745Z,98531.34
2023-02-04T12:18:52.498Z,98528.94
2023-02-04T12:21:20.319Z,98514.69
2023-02-04T12:23:47.780Z,98523.69
2023-02-04T12:26:15.375Z,98524.22
2023-02-04T12:28:43.153Z,98525.28
2023-02-04T12:31:10.634Z,98517.59
2023-02-04T12:33:38.235Z,98521.59
2023-02-04T12:36:06.048Z,98522.63
2023-02-04T12:38:33.597Z,98522.91
2023-02-04T12:41:01.075Z,98525.28
2023-02-04T12:43:28.735Z,98523.44
2023-02-04T12:45:56.354Z,98535.06
2023-02-04T12:48:23.981Z,98531.63
2023-02-04T12:50:51.502Z,98533.50
2023-02-04T12:53:18.971Z,98529.53
2023-02-04T12:55:46.499Z,98528.44
2023-02-04T12:58:14.108Z,98528.19
2023-02-04T13:00:42.512Z,98538.50
2023-02-04T13:03:10.012Z,98535.00
2023-02-04T13:05:37.577Z,98539.78
2023-02-04T13:08:05.347Z,98537.66
2023-02-04T13:10:32.892Z,98535.00
2023-02-04T13:13:02.405Z,98530.50
2023-02-04T13:15:31.888Z,98528.91
2023-02-04T13:17:59.632Z,98539.47
2023-02-04T13:20:27.170Z,98534.69
2023-02-04T13:22:54.723Z,98544.34
2023-02-04T13:25:22.198Z,98533.81
2023-02-04T13:27:49.774Z,98539.44
2023-02-04T13:30:17.585Z,98540.66
2023-02-04T13:32:46.100Z,98541.50
2023-02-04T13:35:13.571Z,98541.25
2023-02-04T13:37:41.081Z,98540.94
2023-02-04T13:40:09.826Z,98542.00
2023-02-04T13:42:37.428Z,98544.41
2023-02-04T13:45:07.900Z,98549.16
2023-02-04T13:47:35.436Z,98544.09
2023-02-04T13:50:02.898Z,98549.38
2023-02-04T13:52:30.632Z,98535.31
2023-02-04T13:54:58.226Z,98544.75
2023-02-04T13:57:25.725Z,98536.59
2023-02-04T13:59:53.575Z,98532.34
2023-02-04T14:02:24.309Z,98507.34
2023-02-04T14:04:52.027Z,98537.84
2023-02-04T14:07:19.516Z,98538.88
2023-02-04T14:09:48.808Z,98544.31
2023-02-04T14:12:16.414Z,98527.41
2023-02-04T14:14:44.008Z,98533.09
2023-02-04T14:17:11.531Z,98531.50
2023-02-04T14:19:39.100Z,98525.50
2023-02-04T14:22:06.683Z,98535.66
2023-02-04T14:24:34.588Z,98531.59
2023-02-04T14:27:07.472Z,98535.66
2023-02-04T14:29:35.270Z,98534.63
2023-02-04T14:32:02.769Z,98530.44
2023-02-04T14:34:30.413Z,98531.03
2023-02-04T14:36:58.045Z,98531.75
2023-02-04T14:39:25.595Z,98534.63
2023-02-04T14:41:53.236Z,98530.66
2023-02-04T14:44:21.198Z,98527.00
2023-02-04T14:46:49.422Z,98523.75
2023-02-04T14:49:17.767Z,98493.19
2023-02-04T14:51:45.388Z,98529.00
2023-02-04T14:54:12.948Z,98524.25
2023-02-04T14:56:40.562Z,98530.63
2023-02-04T14:59:08.239Z,98521.00
2023-02-04T15:01:35.894Z,98517.22
2023-02-04T15:04:03.574Z,98512.59
2023-02-04T15:06:31.064Z,98525.09
2023-02-04T15:08:58.644Z,98518.56
2023-02-04T15:11:26.105Z,98518.06
2023-02-04T15:13:53.629Z,98527.69
2023-02-04T15:16:21.113Z,98519.31
2023-02-04T15:18:48.788Z,98520.78
2023-02-04T15:21:31.760Z,98517.88
2023-02-04T15:24:01.550Z,98502.41
2023-02-04T15:26:29.054Z,98524.06
2023-02-04T15:28:56.531Z,98530.97
2023-02-04T15:31:25.468Z,98526.41
2023-02-04T15:33:53.770Z,98539.03
2023-02-04T15:36:21.343Z,98528.09
2023-02-04T15:39:21.050Z,98531.50
2023-02-04T15:41:48.516Z,98537.91
2023-02-04T15:44:16.080Z,98537.72
2023-02-04T15:46:43.520Z,98537.50
2023-02-04T15:49:28.032Z,98530.19
2023-02-04T15:51:55.605Z,98523.47
2023-02-04T15:58:18.118Z,98525.63
2023-02-04T16:00:53.924Z,98525.06
2023-02-04T16:03:22.392Z,98529.91
2023-02-04T16:05:52.116Z,98523.00
2023-02-04T16:08:19.584Z,98529.22
2023-02-04T16:10:52.469Z,98530.13
2023-02-04T16:13:20.314Z,98531.66
2023-02-04T16:15:47.829Z,98536.38
2023-02-04T16:18:15.384Z,98531.59
2023-02-04T16:20:42.881Z,98528.56
2023-02-04T16:23:10.363Z,98528.22
2023-02-04T16:25:37.975Z,98525.91
2023-02-04T16:28:05.638Z,98533.00
2023-02-04T16:30:33.374Z,98526.59
2023-02-04T16:33:00.855Z,98527.31
2023-02-04T16:35:30.477Z,98528.88
2023-02-04T16:38:01.156Z,98530.28
2023-02-04T16:40:29.614Z,98529.91
2023-02-04T16:42:57.120Z,98519.13
2023-02-04T16:45:24.650Z,98519.66
2023-02-04T16:47:52.133Z,98518.69
2023-02-04T16:50:22.467Z,98525.09
2023-02-04T16:52:49.948Z,98524.97
2023-02-04T16:55:17.515Z,98518.91
2023-02-04T16:57:45.100Z,98522.13
2023-02-04T17:00:13.143Z,98524.78
2023-02-04T17:02:40.710Z,98522.78
2023-02-04T17:05:08.491Z,98537.03
2023-02-04T17:07:36.037Z,98518.41
2023-02-04T17:10:04.009Z,98516.28
2023-02-04T17:12:31.662Z,98512.88
2023-02-04T17:15:28.327Z,98517.75
2023-02-04T17:18:39.873Z,98498.25
2023-02-04T17:21:08.559Z,98509.63
2023-02-04T17:23:36.188Z,98508.50
2023-02-04T17:26:03.825Z,98513.69
2023-02-04T17:28:31.378Z,98509.69
2023-02-04T17:30:59.175Z,98509.25
2023-02-04T17:33:26.929Z,98514.63
2023-02-04T17:35:54.518Z,98514.31
2023-02-04T17:38:22.661Z,98515.50
2023-02-04T17:40:50.535Z,98516.63
2023-02-04T17:43:18.418Z,98506.41
2023-02-04T17:45:45.882Z,98510.41
2023-02-04T17:48:13.840Z,98510.50
2023-02-04T17:50:43.543Z,98509.25
2023-02-04T17:53:12.063Z,98509.78
2023-02-04T17:55:43.310Z,98514.38
2023-02-04T17:58:31.697Z,98503.38
2023-02-04T18:01:16.325Z,98508.75
2023-02-04T18:03:46.743Z,98513.91
2023-02-04T18:06:30.325Z,98507.91
2023-02-04T18:09:44.251Z,98509.81
2023-02-04T18:12:16.723Z,98504.78
2023-02-04T18:15:19.704Z,98490.00
2023-02-04T18:17:47.261Z,98503.25
2023-02-04T18:20:18.924Z,98491.97
2023-02-04T18:22:50.779Z,98504.78
2023-02-04T18:25:20.831Z,98501.25
2023-02-04T18:27:48.409Z,98494.47
2023-02-04T18:30:22.443Z,98493.25
2023-02-04T18:32:51.391Z,98493.88
2023-02-04T18:35:51.860Z,98498.13
2023-02-04T18:38:39.827Z,98513.13
2023-02-04T18:41:19.409Z,98499.78
2023-02-04T18:44:04.020Z,98489.28
2023-02-04T18:46:39.825Z,98484.97
2023-02-04T18:49:32.922Z,98504.50
2023-02-04T18:52:20.836Z,98498.72
2023-02-04T18:54:56.792Z,98495.38
2023-02-04T18:57:38.243Z,98490.66
2023-02-04T19:00:12.519Z,98493.91
2023-02-04T19:02:47.038Z,98493.03
2023-02-04T19:05:26.677Z,98488.25
2023-02-04T19:08:21.387Z,98493.66
2023-02-04T19:10:50.103Z,98487.75
2023-02-04T19:13:26.247Z,98482.91
2023-02-04T19:15:56.916Z,98486.50
2023-02-04T19:18:28.713Z,98488.25
2023-02-04T19:21:01.674Z,98486.09
2023-02-04T19:23:37.919Z,98478.28
2023-02-04T19:26:28.222Z,98485.13
2023-02-04T19:28:56.448Z,98485.72
2023-02-04T19:31:34.760Z,98487.47
2023-02-04T19:34:28.287Z,98482.97
2023-02-04T19:36:56.058Z,98481.94
2023-02-04T19:39:35.565Z,98484.19
2023-02-04T19:42:36.632Z,98479.69
2023-02-04T19:45:25.759Z,98487.97
2023-02-04T19:47:57.645Z,98474.47
2023-02-04T19:50:26.950Z,98479.81
2023-02-04T19:53:22.678Z,98484.72
2023-02-04T19:55:54.388Z,98491.34
2023-02-04T19:58:28.847Z,98494.28
2023-02-04T20:01:03.368Z,98498.75
2023-02-04T20:03:37.150Z,98489.06
2023-02-04T20:06:10.766Z,98485.75
2023-02-04T20:08:41.207Z,98486.22
2023-02-04T20:11:35.423Z,98484.75
2023-02-04T20:14:15.293Z,98485.88
2023-02-04T20:16:59.498Z,98480.16
2023-02-04T20:19:29.303Z,98479.81
2023-02-04T20:22:57.245Z,98481.66
2023-02-04T20:25:48.529Z,98485.28
2023-02-04T20:28:23.914Z,98475.91
2023-02-04T20:30:52.258Z,98469.59
2023-02-04T20:33:27.330Z,98470.38
2023-02-04T20:36:23.050Z,98479.78
2023-02-04T20:38:50.673Z,98485.66
2023-02-04T20:41:20.640Z,98470.34
2023-02-04T20:43:51.908Z,98472.81
2023-02-04T20:46:26.000Z,98471.56
2023-02-04T20:48:53.664Z,98478.06
2023-02-04T20:51:27.204Z,98471.03
2023-02-04T20:53:58.602Z,98484.31
2023-02-04T20:56:35.862Z,98477.34
2023-02-04T20:59:12.424Z,98472.72
2023-02-04T21:01:45.073Z,98466.13
2023-02-04T21:04:37.274Z,98468.38
2023-02-04T21:07:19.842Z,98466.09
2023-02-04T21:09:48.505Z,98469.28
2023-02-04T21:12:16.277Z,98466.38
2023-02-04T21:14:43.813Z,98460.81
2023-02-04T21:17:11.392Z,98471.09
2023-02-04T21:19:38.859Z,98466.19
2023-02-04T21:22:06.315Z,98470.31
2023-02-04T21:24:34.069Z,98465.06
2023-02-04T21:27:01.702Z,98464.50
2023-02-04T21:29:29.236Z,98462.31
2023-02-04T21:31:56.847Z,98456.84
2023-02-04T21:34:24.308Z,98466.06
2023-02-04T21:36:51.845Z,98465.59
2023-02-04T21:39:20.977Z,98468.25
2023-02-04T21:42:08.411Z,98469.03
2023-02-04T21:44:39.000Z,98467.34
2023-02-04T21:47:06.733Z,98468.00
2023-02-04T21:49:34.325Z,98464.00
2023-02-04T21:52:01.747Z,98470.53
2023-02-04T21:54:29.234Z,98470.63
2023-02-04T21:56:56.878Z,98478.94
2023-02-04T21:59:25.520Z,98480.63
2023-02-04T22:01:53.168Z,98478.94
2023-02-04T22:04:20.736Z,98479.81
2023-02-04T22:06:48.167Z,98477.28
2023-02-04T22:09:16.218Z,98480.38
2023-02-04T22:11:43.997Z,98477.09
2023-02-04T22:14:11.522Z,98477.22
2023-02-04T22:16:38.979Z,98480.84
2023-02-04T22:19:06.468Z,98488.31
2023-02-04T22:21:35.124Z,98493.47
2023-02-04T22:24:02.675Z,98477.84
2023-02-04T22:26:30.136Z,98480.91
2023-02-04T22:28:57.834Z,98487.75
2023-02-04T22:31:25.628Z,98482.56
2023-02-04T22:33:53.115Z,98485.09
2023-02-04T22:36:20.595Z,98470.00
2023-02-04T22:38:48.182Z,98483.19
2023-02-04T22:41:15.627Z,98480.81
2023-02-04T22:43:43.133Z,98485.59
2023-02-04T22:46:10.619Z,98484.81
2023-02-04T22:48:38.102Z,98478.41
2023-02-04T22:51:05.690Z,98480.28
2023-02-04T22:53:33.208Z,98467.34
2023-02-04T22:56:00.680Z,98485.47
2023-02-04T22:58:28.164Z,98484.81
2023-02-04T23:00:55.645Z,98490.34
2023-02-04T23:03:23.312Z,98486.34
2023-02-04T23:05:50.974Z,98484.56
2023-02-04T23:08:18.724Z,98477.84
2023-02-04T23:10:46.706Z,98484.69
2023-02-04T23:13:14.453Z,98481.19
2023-02-04T23:15:41.988Z,98474.22
2023-02-04T23:18:09.902Z,98487.84
2023-02-04T23:20:39.696Z,98468.56
2023-02-04T23:23:08.435Z,98478.63
2023-02-04T23:25:36.610Z,98475.91
2023-02-04T23:28:04.218Z,98474.50
2023-02-04T23:30:31.748Z,98477.06
2023-02-04T23:32:59.188Z,98478.94
2023-02-04T23:35:26.871Z,98471.22
2023-02-04T23:37:54.315Z,98464.97
2023-02-04T23:40:21.886Z,98466.50
2023-02-04T23:42:49.372Z,98459.28
2023-02-04T23:45:17.088Z,98461.28
2023-02-04T23:47:44.576Z,98457.31
2023-02-04T23:50:12.172Z,98464.13
2023-02-04T23:52:39.664Z,98455.66
2023-02-04T23:55:07.311Z,98453.31
2023-02-04T23:57:34.830Z,98465.00
